sensor_id;sensor_type;location;lat;lon;timestamp;pressure;altitude;pressure_sealevel;temperature;humidity
62978;BME280;49073;42.352;23.808;2023-01-28T00:00:43;93946.94;;;-0.56;94.93
62978;BME280;49073;42.352;23.808;2023-01-28T00:03:45;93950.84;;;-0.45;94.43
62978;BME280;49073;42.352;23.808;2023-01-28T00:06:48;93958.09;;;-0.41;94.31
62978;BME280;49073;42.352;23.808;2023-01-28T00:10:05;93953.59;;;-0.41;94.10
62978;BME280;49073;42.352;23.808;2023-01-28T00:13:07;93956.53;;;-0.42;93.75
62978;BME280;49073;42.352;23.808;2023-01-28T00:16:09;93960.69;;;-0.41;93.55
62978;BME280;49073;42.352;23.808;2023-01-28T00:19:09;93961.66;;;-0.37;93.74
62978;BME280;49073;42.352;23.808;2023-01-28T00:22:10;93968.91;;;-0.34;93.67
62978;BME280;49073;42.352;23.808;2023-01-28T00:25:10;93959.50;;;-0.35;93.50
62978;BME280;49073;42.352;23.808;2023-01-28T00:28:11;93963.78;;;-0.39;93.41
62978;BME280;49073;42.352;23.808;2023-01-28T00:31:21;93967.34;;;-0.35;93.12
62978;BME280;49073;42.352;23.808;2023-01-28T00:34:21;93970.13;;;-0.32;93.59
62978;BME280;49073;42.352;23.808;2023-01-28T00:37:22;93962.44;;;-0.28;93.59
62978;BME280;49073;42.352;23.808;2023-01-28T00:40:23;93972.91;;;-0.28;93.35
62978;BME280;49073;42.352;23.808;2023-01-28T00:43:23;93982.78;;;-0.25;93.35
62978;BME280;49073;42.352;23.808;2023-01-28T00:46:24;93976.00;;;-0.26;93.65
62978;BME280;49073;42.352;23.808;2023-01-28T00:49:28;93973.72;;;-0.19;93.66
62978;BME280;49073;42.352;23.808;2023-01-28T00:52:28;93980.50;;;-0.26;94.05
62978;BME280;49073;42.352;23.808;2023-01-28T00:55:29;93978.97;;;-0.19;94.35
62978;BME280;49073;42.352;23.808;2023-01-28T00:58:30;93980.97;;;-0.16;94.48
62978;BME280;49073;42.352;23.808;2023-01-28T01:01:31;93977.56;;;-0.25;94.36
62978;BME280;49073;42.352;23.808;2023-01-28T01:04:31;93989.41;;;-0.27;94.31
62978;BME280;49073;42.352;23.808;2023-01-28T01:07:34;93982.50;;;-0.23;93.84
62978;BME280;49073;42.352;23.808;2023-01-28T01:10:41;93983.59;;;-0.16;94.03
62978;BME280;49073;42.352;23.808;2023-01-28T01:13:41;93983.09;;;-0.26;93.96
62978;BME280;49073;42.352;23.808;2023-01-28T01:16:42;93993.72;;;-0.23;93.76
62978;BME280;49073;42.352;23.808;2023-01-28T01:19:42;93990.50;;;-0.20;93.92
62978;BME280;49073;42.352;23.808;2023-01-28T01:22:43;93990.66;;;-0.25;93.97
62978;BME280;49073;42.352;23.808;2023-01-28T01:25:44;93990.50;;;-0.20;94.25
62978;BME280;49073;42.352;23.808;2023-01-28T01:28:45;93992.66;;;-0.22;94.21
62978;BME280;49073;42.352;23.808;2023-01-28T01:31:45;94002.06;;;-0.21;94.17
62978;BME280;49073;42.352;23.808;2023-01-28T01:34:46;93997.75;;;-0.25;94.15
62978;BME280;49073;42.352;23.808;2023-01-28T01:37:47;94002.50;;;-0.27;94.06
62978;BME280;49073;42.352;23.808;2023-01-28T01:40:48;94003.13;;;-0.22;94.06
62978;BME280;49073;42.352;23.808;2023-01-28T01:46:51;94007.63;;;-0.13;94.12
62978;BME280;49073;42.352;23.808;2023-01-28T01:49:52;94012.72;;;-0.17;94.17
62978;BME280;49073;42.352;23.808;2023-01-28T01:52:55;94016.81;;;-0.25;94.30
62978;BME280;49073;42.352;23.808;2023-01-28T01:55:59;94014.81;;;-0.28;94.23
62978;BME280;49073;42.352;23.808;2023-01-28T01:59:02;94011.53;;;-0.34;94.82
62978;BME280;49073;42.352;23.808;2023-01-28T02:02:04;94013.56;;;-0.31;94.30
62978;BME280;49073;42.352;23.808;2023-01-28T02:05:09;94009.53;;;-0.37;94.47
62978;BME280;49073;42.352;23.808;2023-01-28T02:08:10;94010.78;;;-0.34;94.32
62978;BME280;49073;42.352;23.808;2023-01-28T02:11:27;94016.63;;;-0.37;94.57
62978;BME280;49073;42.352;23.808;2023-01-28T02:14:30;94004.28;;;-0.37;94.31
62978;BME280;49073;42.352;23.808;2023-01-28T02:17:33;94016.00;;;-0.34;94.00
62978;BME280;49073;42.352;23.808;2023-01-28T02:21:02;94013.88;;;-0.32;94.07
62978;BME280;49073;42.352;23.808;2023-01-28T02:30:35;94017.69;;;-0.38;92.18
62978;BME280;49073;42.352;23.808;2023-01-28T02:33:43;94017.38;;;-0.37;91.53
62978;BME280;49073;42.352;23.808;2023-01-28T02:37:35;94021.41;;;-0.31;91.33
62978;BME280;49073;42.352;23.808;2023-01-28T02:40:17;94024.34;;;-0.32;91.49
62978;BME280;49073;42.352;23.808;2023-01-28T02:43:36;94022.19;;;-0.30;91.45
62978;BME280;49073;42.352;23.808;2023-01-28T02:46:37;94023.25;;;-0.31;91.67
62978;BME280;49073;42.352;23.808;2023-01-28T02:49:57;94031.13;;;-0.31;91.44
62978;BME280;49073;42.352;23.808;2023-01-28T02:53:24;94031.72;;;-0.34;91.88
62978;BME280;49073;42.352;23.808;2023-01-28T02:56:59;94034.47;;;-0.39;91.56
62978;BME280;49073;42.352;23.808;2023-01-28T03:00:17;94030.59;;;-0.42;91.74
62978;BME280;49073;42.352;23.808;2023-01-28T03:03:35;94023.81;;;-0.43;91.86
62978;BME280;49073;42.352;23.808;2023-01-28T03:06:46;94027.22;;;-0.42;91.93
62978;BME280;49073;42.352;23.808;2023-01-28T03:09:48;94026.72;;;-0.45;91.83
62978;BME280;49073;42.352;23.808;2023-01-28T03:12:53;94033.19;;;-0.42;91.64
62978;BME280;49073;42.352;23.808;2023-01-28T03:16:13;94037.38;;;-0.41;92.07
62978;BME280;49073;42.352;23.808;2023-01-28T03:19:32;94033.69;;;-0.40;91.85
62978;BME280;49073;42.352;23.808;2023-01-28T03:22:53;94035.81;;;-0.42;91.85
62978;BME280;49073;42.352;23.808;2023-01-28T03:26:13;94034.28;;;-0.43;92.07
62978;BME280;49073;42.352;23.808;2023-01-28T03:29:34;94032.56;;;-0.48;92.29
62978;BME280;49073;42.352;23.808;2023-01-28T03:32:55;94034.28;;;-0.43;92.58
62978;BME280;49073;42.352;23.808;2023-01-28T03:36:15;94040.28;;;-0.42;92.65
62978;BME280;49073;42.352;23.808;2023-01-28T03:39:34;94047.06;;;-0.41;92.58
62978;BME280;49073;42.352;23.808;2023-01-28T03:42:35;94039.03;;;-0.45;92.47
62978;BME280;49073;42.352;23.808;2023-01-28T03:45:35;94044.94;;;-0.39;92.90
62978;BME280;49073;42.352;23.808;2023-01-28T03:48:36;94050.28;;;-0.45;92.73
62978;BME280;49073;42.352;23.808;2023-01-28T03:51:37;94054.56;;;-0.49;92.74
62978;BME280;49073;42.352;23.808;2023-01-28T03:54:37;94048.31;;;-0.39;92.60
62978;BME280;49073;42.352;23.808;2023-01-28T03:57:38;94050.75;;;-0.42;92.54
62978;BME280;49073;42.352;23.808;2023-01-28T04:00:40;94058.91;;;-0.44;92.62
62978;BME280;49073;42.352;23.808;2023-01-28T04:03:41;94057.72;;;-0.38;92.85
62978;BME280;49073;42.352;23.808;2023-01-28T04:06:41;94055.69;;;-0.41;93.02
62978;BME280;49073;42.352;23.808;2023-01-28T04:09:42;94060.91;;;-0.41;92.69
62978;BME280;49073;42.352;23.808;2023-01-28T04:12:43;94068.50;;;-0.39;92.51
62978;BME280;49073;42.352;23.808;2023-01-28T04:15:44;94070.31;;;-0.40;92.49
62978;BME280;49073;42.352;23.808;2023-01-28T04:18:45;94070.03;;;-0.38;92.64
62978;BME280;49073;42.352;23.808;2023-01-28T04:21:46;94068.00;;;-0.41;92.48
62978;BME280;49073;42.352;23.808;2023-01-28T04:24:48;94076.81;;;-0.37;92.56
62978;BME280;49073;42.352;23.808;2023-01-28T04:27:48;94074.31;;;-0.42;92.91
62978;BME280;49073;42.352;23.808;2023-01-28T04:30:51;94075.69;;;-0.45;92.94
62978;BME280;49073;42.352;23.808;2023-01-28T04:33:52;94075.56;;;-0.40;92.53
62978;BME280;49073;42.352;23.808;2023-01-28T04:36:52;94079.25;;;-0.41;92.82
62978;BME280;49073;42.352;23.808;2023-01-28T04:39:52;94080.78;;;-0.40;92.28
62978;BME280;49073;42.352;23.808;2023-01-28T04:42:54;94077.88;;;-0.38;92.55
62978;BME280;49073;42.352;23.808;2023-01-28T04:45:56;94082.81;;;-0.37;92.60
62978;BME280;49073;42.352;23.808;2023-01-28T04:48:57;94099.19;;;-0.31;92.46
62978;BME280;49073;42.352;23.808;2023-01-28T04:51:57;94083.59;;;-0.36;92.34
62978;BME280;49073;42.352;23.808;2023-01-28T04:54:58;94095.25;;;-0.42;92.61
62978;BME280;49073;42.352;23.808;2023-01-28T04:58:00;94096.97;;;-0.38;92.21
62978;BME280;49073;42.352;23.808;2023-01-28T05:01:00;94101.09;;;-0.46;92.29
62978;BME280;49073;42.352;23.808;2023-01-28T05:04:01;94102.31;;;-0.43;92.30
62978;BME280;49073;42.352;23.808;2023-01-28T05:07:04;94110.50;;;-0.45;92.42
62978;BME280;49073;42.352;23.808;2023-01-28T05:10:07;94108.47;;;-0.48;92.28
62978;BME280;49073;42.352;23.808;2023-01-28T05:13:07;94111.69;;;-0.51;92.39
62978;BME280;49073;42.352;23.808;2023-01-28T05:16:08;94116.44;;;-0.53;92.75
62978;BME280;49073;42.352;23.808;2023-01-28T05:19:09;94114.47;;;-0.47;92.40
62978;BME280;49073;42.352;23.808;2023-01-28T05:22:09;94109.41;;;-0.43;92.69
62978;BME280;49073;42.352;23.808;2023-01-28T05:25:10;94104.09;;;-0.52;93.00
62978;BME280;49073;42.352;23.808;2023-01-28T05:28:12;94105.97;;;-0.53;92.98
62978;BME280;49073;42.352;23.808;2023-01-28T05:31:12;94110.72;;;-0.55;93.20
62978;BME280;49073;42.352;23.808;2023-01-28T05:34:13;94108.09;;;-0.55;93.24
62978;BME280;49073;42.352;23.808;2023-01-28T05:37:14;94098.50;;;-0.60;93.20
62978;BME280;49073;42.352;23.808;2023-01-28T05:40:15;94117.03;;;-0.56;93.21
62978;BME280;49073;42.352;23.808;2023-01-28T05:43:16;94119.56;;;-0.65;93.78
62978;BME280;49073;42.352;23.808;2023-01-28T05:46:17;94126.16;;;-0.67;93.63
62978;BME280;49073;42.352;23.808;2023-01-28T05:49:17;94124.72;;;-0.74;93.81
62978;BME280;49073;42.352;23.808;2023-01-28T05:52:18;94129.94;;;-0.74;94.02
62978;BME280;49073;42.352;23.808;2023-01-28T05:55:18;94133.63;;;-0.75;94.07
62978;BME280;49073;42.352;23.808;2023-01-28T05:58:19;94139.34;;;-0.73;94.36
62978;BME280;49073;42.352;23.808;2023-01-28T06:01:21;94144.19;;;-0.66;94.27
62978;BME280;49073;42.352;23.808;2023-01-28T06:04:21;94137.28;;;-0.62;93.18
62978;BME280;49073;42.352;23.808;2023-01-28T06:07:22;94144.34;;;-0.62;92.37
62978;BME280;49073;42.352;23.808;2023-01-28T06:10:23;94151.34;;;-0.57;92.39
62978;BME280;49073;42.352;23.808;2023-01-28T06:13:23;94158.91;;;-0.56;92.15
62978;BME280;49073;42.352;23.808;2023-01-28T06:16:24;94162.28;;;-0.55;92.31
62978;BME280;49073;42.352;23.808;2023-01-28T06:19:24;94170.00;;;-0.50;92.20
62978;BME280;49073;42.352;23.808;2023-01-28T06:22:25;94168.78;;;-0.53;91.93
62978;BME280;49073;42.352;23.808;2023-01-28T06:25:25;94167.31;;;-0.59;91.92
62978;BME280;49073;42.352;23.808;2023-01-28T06:28:26;94177.88;;;-0.50;91.93
62978;BME280;49073;42.352;23.808;2023-01-28T06:31:26;94189.59;;;-0.48;91.60
62978;BME280;49073;42.352;23.808;2023-01-28T06:34:27;94189.19;;;-0.41;91.47
62978;BME280;49073;42.352;23.808;2023-01-28T06:37:28;94183.66;;;-0.39;91.08
62978;BME280;49073;42.352;23.808;2023-01-28T06:40:28;94193.47;;;-0.45;91.06
62978;BME280;49073;42.352;23.808;2023-01-28T06:43:29;94196.75;;;-0.39;91.50
62978;BME280;49073;42.352;23.808;2023-01-28T06:46:29;94197.03;;;-0.41;91.00
62978;BME280;49073;42.352;23.808;2023-01-28T06:49:31;94207.59;;;-0.32;90.31
62978;BME280;49073;42.352;23.808;2023-01-28T06:52:31;94213.31;;;-0.30;89.62
62978;BME280;49073;42.352;23.808;2023-01-28T06:55:32;94220.56;;;-0.27;89.21
62978;BME280;49073;42.352;23.808;2023-01-28T06:58:33;94225.22;;;-0.24;89.01
62978;BME280;49073;42.352;23.808;2023-01-28T07:01:34;94230.53;;;-0.15;88.23
62978;BME280;49073;42.352;23.808;2023-01-28T07:04:35;94228.41;;;-0.13;88.46
62978;BME280;49073;42.352;23.808;2023-01-28T07:07:37;94241.78;;;-0.15;88.20
62978;BME280;49073;42.352;23.808;2023-01-28T07:10:37;94241.78;;;-0.15;88.01
62978;BME280;49073;42.352;23.808;2023-01-28T07:13:38;94249.63;;;-0.15;87.30
62978;BME280;49073;42.352;23.808;2023-01-28T07:16:38;94253.50;;;-0.12;87.22
62978;BME280;49073;42.352;23.808;2023-01-28T07:19:39;94252.44;;;-0.11;87.45
62978;BME280;49073;42.352;23.808;2023-01-28T07:22:40;94252.91;;;-0.09;87.02
62978;BME280;49073;42.352;23.808;2023-01-28T07:25:41;94260.31;;;-0.11;87.44
62978;BME280;49073;42.352;23.808;2023-01-28T07:28:42;94269.41;;;-0.08;87.77
62978;BME280;49073;42.352;23.808;2023-01-28T07:31:43;94271.34;;;0.00;87.96
62978;BME280;49073;42.352;23.808;2023-01-28T07:34:43;94272.69;;;-0.03;87.16
62978;BME280;49073;42.352;23.808;2023-01-28T07:37:54;94275.19;;;0.03;87.32
62978;BME280;49073;42.352;23.808;2023-01-28T07:40:54;94275.78;;;-0.01;87.28
62978;BME280;49073;42.352;23.808;2023-01-28T07:43:55;94275.13;;;-0.06;87.19
62978;BME280;49073;42.352;23.808;2023-01-28T07:46:55;94272.88;;;0.01;87.16
62978;BME280;49073;42.352;23.808;2023-01-28T07:49:56;94278.88;;;0.02;86.33
62978;BME280;49073;42.352;23.808;2023-01-28T07:52:57;94281.50;;;0.02;86.84
62978;BME280;49073;42.352;23.808;2023-01-28T07:56:01;94280.16;;;0.04;86.55
62978;BME280;49073;42.352;23.808;2023-01-28T07:59:02;94279.84;;;0.06;86.81
62978;BME280;49073;42.352;23.808;2023-01-28T08:02:03;94273.25;;;0.08;86.35
62978;BME280;49073;42.352;23.808;2023-01-28T08:05:07;94285.75;;;0.11;85.82
62978;BME280;49073;42.352;23.808;2023-01-28T08:08:09;94274.97;;;0.13;85.16
62978;BME280;49073;42.352;23.808;2023-01-28T08:11:09;94284.38;;;0.14;84.80
62978;BME280;49073;42.352;23.808;2023-01-28T08:14:11;94284.56;;;0.18;84.85
62978;BME280;49073;42.352;23.808;2023-01-28T08:17:12;94293.19;;;0.18;84.46
62978;BME280;49073;42.352;23.808;2023-01-28T08:20:13;94292.13;;;0.19;83.85
62978;BME280;49073;42.352;23.808;2023-01-28T08:23:16;94294.09;;;0.13;84.03
62978;BME280;49073;42.352;23.808;2023-01-28T08:26:17;94302.59;;;0.19;83.40
62978;BME280;49073;42.352;23.808;2023-01-28T08:29:17;94293.38;;;0.22;83.68
62978;BME280;49073;42.352;23.808;2023-01-28T08:32:18;94292.59;;;0.21;83.34
62978;BME280;49073;42.352;23.808;2023-01-28T08:35:18;94299.81;;;0.16;83.93
62978;BME280;49073;42.352;23.808;2023-01-28T08:38:19;94301.13;;;0.27;83.79
62978;BME280;49073;42.352;23.808;2023-01-28T08:41:23;94301.00;;;0.32;83.61
62978;BME280;49073;42.352;23.808;2023-01-28T08:44:23;94303.03;;;0.35;83.98
62978;BME280;49073;42.352;23.808;2023-01-28T08:47:24;94301.97;;;0.36;84.09
62978;BME280;49073;42.352;23.808;2023-01-28T08:50:28;94307.88;;;0.42;83.59
62978;BME280;49073;42.352;23.808;2023-01-28T08:53:29;94302.94;;;0.40;83.54
62978;BME280;49073;42.352;23.808;2023-01-28T08:56:29;94308.03;;;0.46;83.48
62978;BME280;49073;42.352;23.808;2023-01-28T08:59:30;94323.31;;;0.43;83.54
62978;BME280;49073;42.352;23.808;2023-01-28T09:02:30;94320.41;;;0.45;83.77
62978;BME280;49073;42.352;23.808;2023-01-28T09:05:32;94319.59;;;0.45;83.71
62978;BME280;49073;42.352;23.808;2023-01-28T09:08:33;94317.41;;;0.38;83.56
62978;BME280;49073;42.352;23.808;2023-01-28T09:11:33;94311.47;;;0.46;83.79
62978;BME280;49073;42.352;23.808;2023-01-28T09:14:34;94316.47;;;0.56;84.53
62978;BME280;49073;42.352;23.808;2023-01-28T09:17:34;94315.47;;;0.66;84.94
62978;BME280;49073;42.352;23.808;2023-01-28T09:20:36;94316.53;;;0.65;84.34
62978;BME280;49073;42.352;23.808;2023-01-28T09:23:37;94315.50;;;0.75;83.91
62978;BME280;49073;42.352;23.808;2023-01-28T09:26:38;94314.13;;;0.78;84.15
62978;BME280;49073;42.352;23.808;2023-01-28T09:29:38;94309.66;;;0.78;83.40
62978;BME280;49073;42.352;23.808;2023-01-28T09:32:39;94318.19;;;0.84;83.06
62978;BME280;49073;42.352;23.808;2023-01-28T09:35:39;94312.41;;;0.73;82.76
62978;BME280;49073;42.352;23.808;2023-01-28T09:38:40;94314.75;;;0.75;82.92
62978;BME280;49073;42.352;23.808;2023-01-28T09:45:24;94313.94;;;0.74;82.27
62978;BME280;49073;42.352;23.808;2023-01-28T09:48:50;94312.41;;;0.73;83.29
62978;BME280;49073;42.352;23.808;2023-01-28T09:51:52;94309.31;;;0.71;82.83
62978;BME280;49073;42.352;23.808;2023-01-28T09:55:11;94314.75;;;0.75;82.79
62978;BME280;49073;42.352;23.808;2023-01-28T09:58:15;94312.75;;;0.80;82.56
62978;BME280;49073;42.352;23.808;2023-01-28T10:11:37;94319.06;;;1.02;84.13
62978;BME280;49073;42.352;23.808;2023-01-28T10:17:25;94315.38;;;1.03;82.32
62978;BME280;49073;42.352;23.808;2023-01-28T10:20:35;94311.19;;;1.02;81.38
62978;BME280;49073;42.352;23.808;2023-01-28T10:24:00;94318.75;;;1.04;81.23
62978;BME280;49073;42.352;23.808;2023-01-28T10:27:18;94315.88;;;1.14;81.38
62978;BME280;49073;42.352;23.808;2023-01-28T10:30:22;94317.78;;;1.22;82.06
62978;BME280;49073;42.352;23.808;2023-01-28T10:33:31;94316.69;;;1.23;80.86
62978;BME280;49073;42.352;23.808;2023-01-28T10:36:34;94315.25;;;1.17;80.42
62978;BME280;49073;42.352;23.808;2023-01-28T10:39:35;94319.00;;;1.25;79.67
62978;BME280;49073;42.352;23.808;2023-01-28T10:42:37;94319.31;;;1.23;80.41
62978;BME280;49073;42.352;23.808;2023-01-28T10:46:06;94315.03;;;1.27;79.88
62978;BME280;49073;42.352;23.808;2023-01-28T10:49:17;94316.03;;;1.18;79.36
62978;BME280;49073;42.352;23.808;2023-01-28T10:52:20;94311.41;;;1.14;78.24
62978;BME280;49073;42.352;23.808;2023-01-28T10:55:21;94320.97;;;1.10;78.32
62978;BME280;49073;42.352;23.808;2023-01-28T10:58:24;94322.19;;;1.13;79.53
62978;BME280;49073;42.352;23.808;2023-01-28T11:01:53;94320.78;;;1.07;78.34
62978;BME280;49073;42.352;23.808;2023-01-28T11:05:19;94315.78;;;0.96;78.60
62978;BME280;49073;42.352;23.808;2023-01-28T11:08:24;94311.94;;;0.94;78.92
62978;BME280;49073;42.352;23.808;2023-01-28T11:11:27;94314.09;;;1.00;79.83
62978;BME280;49073;42.352;23.808;2023-01-28T11:14:29;94313.34;;;1.00;79.35
62978;BME280;49073;42.352;23.808;2023-01-28T11:17:33;94309.47;;;0.97;79.57
62978;BME280;49073;42.352;23.808;2023-01-28T11:20:39;94307.66;;;1.07;79.96
62978;BME280;49073;42.352;23.808;2023-01-28T11:24:01;94306.22;;;1.00;78.37
62978;BME280;49073;42.352;23.808;2023-01-28T11:27:12;94313.63;;;0.98;80.05
62978;BME280;49073;42.352;23.808;2023-01-28T11:30:23;94316.22;;;0.90;79.00
62978;BME280;49073;42.352;23.808;2023-01-28T11:33:31;94316.25;;;0.98;80.75
62978;BME280;49073;42.352;23.808;2023-01-28T11:36:33;94311.78;;;0.99;81.03
62978;BME280;49073;42.352;23.808;2023-01-28T11:39:34;94310.38;;;0.93;81.64
62978;BME280;49073;42.352;23.808;2023-01-28T11:42:34;94313.75;;;0.93;81.79
62978;BME280;49073;42.352;23.808;2023-01-28T11:45:43;94310.53;;;0.96;81.76
62978;BME280;49073;42.352;23.808;2023-01-28T11:49:30;94318.28;;;1.01;82.78
62978;BME280;49073;42.352;23.808;2023-01-28T12:02:44;94323.38;;;0.98;82.84
62978;BME280;49073;42.352;23.808;2023-01-28T12:13:04;94326.59;;;0.95;82.72
62978;BME280;49073;42.352;23.808;2023-01-28T12:19:32;94336.50;;;1.07;83.54
62978;BME280;49073;42.352;23.808;2023-01-28T12:26:14;94328.34;;;1.08;83.20
62978;BME280;49073;42.352;23.808;2023-01-28T12:35:55;94337.72;;;1.00;82.63
62978;BME280;49073;42.352;23.808;2023-01-28T12:45:44;94341.88;;;1.01;82.76
62978;BME280;49073;42.352;23.808;2023-01-28T12:48:50;94337.56;;;0.97;82.29
62978;BME280;49073;42.352;23.808;2023-01-28T12:52:12;94345.47;;;1.06;82.56
62978;BME280;49073;42.352;23.808;2023-01-28T12:55:25;94350.09;;;1.09;82.72
62978;BME280;49073;42.352;23.808;2023-01-28T12:58:46;94343.66;;;1.15;83.09
62978;BME280;49073;42.352;23.808;2023-01-28T13:05:20;94353.69;;;1.13;81.91
62978;BME280;49073;42.352;23.808;2023-01-28T13:08:26;94353.19;;;1.11;82.09
62978;BME280;49073;42.352;23.808;2023-01-28T13:11:33;94349.56;;;1.21;82.53
62978;BME280;49073;42.352;23.808;2023-01-28T13:14:39;94352.53;;;1.28;82.07
62978;BME280;49073;42.352;23.808;2023-01-28T13:18:01;94357.78;;;1.28;80.46
62978;BME280;49073;42.352;23.808;2023-01-28T13:21:03;94356.84;;;1.24;80.51
62978;BME280;49073;42.352;23.808;2023-01-28T13:27:11;94360.41;;;1.28;81.55
62978;BME280;49073;42.352;23.808;2023-01-28T13:30:24;94369.34;;;1.27;80.63
62978;BME280;49073;42.352;23.808;2023-01-28T13:33:31;94366.38;;;1.20;79.91
62978;BME280;49073;42.352;23.808;2023-01-28T13:36:44;94376.69;;;1.16;79.95
62978;BME280;49073;42.352;23.808;2023-01-28T13:39:50;94382.53;;;1.13;80.25
62978;BME280;49073;42.352;23.808;2023-01-28T13:43:34;94386.84;;;1.09;81.58
62978;BME280;49073;42.352;23.808;2023-01-28T13:46:38;94382.50;;;1.04;81.12
62978;BME280;49073;42.352;23.808;2023-01-28T13:49:48;94390.66;;;1.02;81.73
62978;BME280;49073;42.352;23.808;2023-01-28T13:53:03;94397.91;;;0.97;81.62
62978;BME280;49073;42.352;23.808;2023-01-28T13:56:08;94395.28;;;0.97;82.14
62978;BME280;49073;42.352;23.808;2023-01-28T14:10:02;94402.53;;;1.00;83.16
62978;BME280;49073;42.352;23.808;2023-01-28T14:19:34;94412.25;;;0.99;83.65
62978;BME280;49073;42.352;23.808;2023-01-28T14:22:40;94411.19;;;1.00;83.83
62978;BME280;49073;42.352;23.808;2023-01-28T14:29:00;94422.16;;;1.02;84.12
62978;BME280;49073;42.352;23.808;2023-01-28T14:32:05;94422.94;;;1.03;83.10
62978;BME280;49073;42.352;23.808;2023-01-28T14:35:18;94424.97;;;1.06;82.58
62978;BME280;49073;42.352;23.808;2023-01-28T14:38:20;94416.91;;;1.02;81.47
62978;BME280;49073;42.352;23.808;2023-01-28T14:41:26;94425.72;;;1.07;80.76
62978;BME280;49073;42.352;23.808;2023-01-28T14:44:37;94418.34;;;1.09;80.18
62978;BME280;49073;42.352;23.808;2023-01-28T14:57:44;94432.97;;;1.01;80.33
62978;BME280;49073;42.352;23.808;2023-01-28T15:00:56;94442.19;;;0.98;81.05
62978;BME280;49073;42.352;23.808;2023-01-28T15:03:58;94435.94;;;1.08;81.77
62978;BME280;49073;42.352;23.808;2023-01-28T15:07:17;94441.91;;;1.00;82.24
62978;BME280;49073;42.352;23.808;2023-01-28T15:10:23;94450.06;;;0.98;82.98
62978;BME280;49073;42.352;23.808;2023-01-28T15:13:33;94448.81;;;0.96;83.14
62978;BME280;49073;42.352;23.808;2023-01-28T15:16:35;94458.56;;;0.81;83.09
62978;BME280;49073;42.352;23.808;2023-01-28T15:19:36;94458.28;;;0.83;83.67
62978;BME280;49073;42.352;23.808;2023-01-28T15:22:37;94459.03;;;0.83;83.58
62978;BME280;49073;42.352;23.808;2023-01-28T15:25:41;94468.41;;;0.76;84.06
62978;BME280;49073;42.352;23.808;2023-01-28T15:28:43;94458.97;;;0.75;84.41
62978;BME280;49073;42.352;23.808;2023-01-28T15:31:47;94470.06;;;0.71;85.46
62978;BME280;49073;42.352;23.808;2023-01-28T15:34:47;94469.00;;;0.72;85.91
62978;BME280;49073;42.352;23.808;2023-01-28T15:37:48;94472.19;;;0.69;86.02
62978;BME280;49073;42.352;23.808;2023-01-28T15:40:59;94473.19;;;0.60;85.98
62978;BME280;49073;42.352;23.808;2023-01-28T15:44:01;94480.94;;;0.65;86.62
62978;BME280;49073;42.352;23.808;2023-01-28T15:47:28;94481.53;;;0.62;86.71
62978;BME280;49073;42.352;23.808;2023-01-28T15:50:32;94490.47;;;0.61;87.10
62978;BME280;49073;42.352;23.808;2023-01-28T15:53:41;94497.06;;;0.58;87.12
62978;BME280;49073;42.352;23.808;2023-01-28T15:56:42;94492.88;;;0.57;87.80
62978;BME280;49073;42.352;23.808;2023-01-28T15:59:42;94499.13;;;0.61;87.52
62978;BME280;49073;42.352;23.808;2023-01-28T16:02:48;94502.91;;;0.55;86.96
62978;BME280;49073;42.352;23.808;2023-01-28T16:06:02;94503.78;;;0.50;87.33
62978;BME280;49073;42.352;23.808;2023-01-28T16:09:05;94508.25;;;0.50;86.95
62978;BME280;49073;42.352;23.808;2023-01-28T16:12:08;94510.47;;;0.42;87.03
62978;BME280;49073;42.352;23.808;2023-01-28T16:15:15;94517.75;;;0.46;87.13
62978;BME280;49073;42.352;23.808;2023-01-28T16:21:34;94531.16;;;0.44;88.09
62978;BME280;49073;42.352;23.808;2023-01-28T16:24:47;94527.59;;;0.40;88.79
62978;BME280;49073;42.352;23.808;2023-01-28T16:27:49;94533.00;;;0.43;89.03
62978;BME280;49073;42.352;23.808;2023-01-28T16:30:49;94541.25;;;0.51;88.22
62978;BME280;49073;42.352;23.808;2023-01-28T16:33:51;94538.25;;;0.43;88.27
62978;BME280;49073;42.352;23.808;2023-01-28T16:36:58;94538.72;;;0.46;88.64
62978;BME280;49073;42.352;23.808;2023-01-28T16:39:59;94537.47;;;0.43;88.46
62978;BME280;49073;42.352;23.808;2023-01-28T16:42:59;94544.56;;;0.42;88.40
62978;BME280;49073;42.352;23.808;2023-01-28T16:46:00;94548.84;;;0.38;88.82
62978;BME280;49073;42.352;23.808;2023-01-28T16:49:01;94540.09;;;0.43;89.61
62978;BME280;49073;42.352;23.808;2023-01-28T16:52:02;94548.94;;;0.47;89.49
62978;BME280;49073;42.352;23.808;2023-01-28T16:55:03;94549.22;;;0.46;89.37
62978;BME280;49073;42.352;23.808;2023-01-28T16:58:05;94543.97;;;0.60;88.68
62978;BME280;49073;42.352;23.808;2023-01-28T17:01:05;94552.72;;;0.55;88.23
62978;BME280;49073;42.352;23.808;2023-01-28T17:04:06;94556.22;;;0.50;87.86
62978;BME280;49073;42.352;23.808;2023-01-28T17:07:09;94555.75;;;0.48;88.66
62978;BME280;49073;42.352;23.808;2023-01-28T17:10:10;94560.09;;;0.53;88.86
62978;BME280;49073;42.352;23.808;2023-01-28T17:13:10;94561.75;;;0.49;88.52
62978;BME280;49073;42.352;23.808;2023-01-28T17:16:11;94559.44;;;0.47;88.46
62978;BME280;49073;42.352;23.808;2023-01-28T17:19:12;94569.81;;;0.52;88.44
62978;BME280;49073;42.352;23.808;2023-01-28T17:22:12;94567.47;;;0.51;88.33
62978;BME280;49073;42.352;23.808;2023-01-28T17:25:13;94559.59;;;0.51;88.92
62978;BME280;49073;42.352;23.808;2023-01-28T17:28:15;94566.72;;;0.50;90.17
62978;BME280;49073;42.352;23.808;2023-01-28T17:31:15;94571.94;;;0.36;90.52
62978;BME280;49073;42.352;23.808;2023-01-28T17:34:16;94573.50;;;0.37;90.57
62978;BME280;49073;42.352;23.808;2023-01-28T17:37:16;94565.63;;;0.37;90.21
62978;BME280;49073;42.352;23.808;2023-01-28T17:40:17;94575.63;;;0.35;89.08
62978;BME280;49073;42.352;23.808;2023-01-28T17:43:17;94580.25;;;0.10;88.70
62978;BME280;49073;42.352;23.808;2023-01-28T17:46:20;94583.31;;;-0.02;89.27
62978;BME280;49073;42.352;23.808;2023-01-28T17:49:20;94575.69;;;0.02;89.16
62978;BME280;49073;42.352;23.808;2023-01-28T17:52:21;94580.31;;;-0.09;88.88
62978;BME280;49073;42.352;23.808;2023-01-28T17:55:23;94586.88;;;-0.11;88.68